Time;durP1;ratioP1;P1;durP2;ratioP2;P2;SDS_P1;SDS_P2;PMS_P1;PMS_P2;Temp;Humidity;BMP_temperature;BMP_pressure;BME280_temperature;BME280_humidity;BME280_pressure;Samples;Min_cycle;Max_cycle;Signal;HPM_P1;HPM_P2
2022/12/13 00:01:47;;;;;;;10.73;5.32;;;24.80;85.70;;;;;;6335305;22;19999;-69
2022/12/13 00:04:14;;;;;;;10.10;4.57;;;24.70;85.70;;;;;;6332745;22;20425;-69
2022/12/13 00:06:40;;;;;;;11.57;4.88;;;24.80;85.70;;;;;;6334950;22;20003;-68
2022/12/13 00:09:07;;;;;;;13.35;4.63;;;24.70;85.60;;;;;;6333994;22;20029;-67
2022/12/13 00:11:34;;;;;;;16.75;6.15;;;24.70;85.70;;;;;;6335761;22;20062;-67
2022/12/13 00:14:01;;;;;;;9.80;5.05;;;24.70;85.70;;;;;;6333820;22;20402;-75
2022/12/13 00:16:28;;;;;;;8.95;4.47;;;24.70;85.80;;;;;;6334943;22;20007;-72
2022/12/13 00:18:57;;;;;;;12.25;5.40;;;24.70;85.70;;;;;;6348099;22;20398;-75
2022/12/13 00:21:26;;;;;;;10.25;4.18;;;24.70;85.80;;;;;;6366248;22;20001;-70
2022/12/13 00:23:54;;;;;;;11.90;5.47;;;24.70;85.90;;;;;;6338333;22;20055;-70
2022/12/13 00:26:24;;;;;;;8.10;3.97;;;24.70;85.90;;;;;;6365202;22;20476;-69
2022/12/13 00:28:52;;;;;;;13.68;4.22;;;24.70;86.00;;;;;;6366213;22;20295;-71
2022/12/13 00:31:21;;;;;;;10.35;5.63;;;24.70;86.00;;;;;;6365226;22;20441;-74
2022/12/13 00:33:48;;;;;;;9.75;3.35;;;24.70;86.00;;;;;;6338596;22;20006;-71
2022/12/13 00:36:15;;;;;;;9.43;4.25;;;24.70;86.20;;;;;;6365578;22;20035;-74
2022/12/13 00:38:41;;;;;;;10.88;4.00;;;24.70;86.40;;;;;;6365881;22;20329;-68
2022/12/13 00:41:12;;;;;;;8.90;3.50;;;24.70;86.40;;;;;;6365384;22;20295;-67
2022/12/13 00:43:39;;;;;;;8.52;4.63;;;24.70;86.30;;;;;;6365069;22;20515;-69
2022/12/13 00:46:12;;;;;;;15.45;5.55;;;24.60;86.10;;;;;;6366541;22;19995;-72
2022/12/13 00:48:38;;;;;;;13.30;3.83;;;24.70;86.10;;;;;;6365207;22;20010;-68
2022/12/13 00:51:09;;;;;;;15.10;4.25;;;24.70;86.20;;;;;;6366215;22;19994;-72
2022/12/13 00:53:36;;;;;;;13.45;3.72;;;24.70;86.50;;;;;;6365559;22;20026;-71
2022/12/13 00:56:04;;;;;;;5.00;3.17;;;24.70;86.80;;;;;;6365695;22;20044;-67
2022/12/13 00:58:30;;;;;;;6.28;3.08;;;24.70;86.90;;;;;;6366481;22;19994;-68
2022/12/13 01:01:06;;;;;;;8.52;4.05;;;24.70;86.80;;;;;;6363753;22;20311;-72
2022/12/13 01:03:33;;;;;;;4.30;3.00;;;24.70;86.70;;;;;;6365921;22;20028;-74
2022/12/13 01:05:59;;;;;;;8.52;3.60;;;24.60;86.50;;;;;;6364058;22;20021;-75
2022/12/13 01:08:27;;;;;;;5.15;2.70;;;24.60;86.50;;;;;;6366042;22;19995;-70
2022/12/13 01:10:54;;;;;;;5.85;3.45;;;24.60;86.50;;;;;;6364550;22;20006;-72
2022/12/13 01:13:21;;;;;;;9.32;6.05;;;24.60;86.50;;;;;;6365533;22;20034;-75
2022/12/13 01:15:47;;;;;;;4.93;3.33;;;24.60;86.60;;;;;;6366098;22;20531;-72
2022/12/13 01:18:17;;;;;;;6.50;3.47;;;24.60;86.90;;;;;;6364540;22;20006;-75
2022/12/13 01:21:13;;;;;;;5.30;3.22;;;24.60;87.00;;;;;;6365832;22;20073;-67
2022/12/13 01:23:41;;;;;;;7.90;3.38;;;24.60;87.30;;;;;;6365240;22;20371;-70
2022/12/13 01:26:11;;;;;;;9.48;4.07;;;24.60;87.40;;;;;;6365431;22;20067;-70
2022/12/13 01:28:37;;;;;;;5.38;3.33;;;24.60;87.70;;;;;;6364590;22;20081;-71
2022/12/13 01:31:09;;;;;;;7.05;4.00;;;24.60;87.80;;;;;;6364997;22;20001;-68
2022/12/13 01:33:36;;;;;;;5.72;3.80;;;24.50;87.80;;;;;;6365959;22;20001;-68
2022/12/13 01:36:09;;;;;;;7.50;4.63;;;24.50;87.90;;;;;;6364290;22;20022;-68
2022/12/13 01:38:36;;;;;;;8.05;5.55;;;24.50;87.90;;;;;;6366410;22;20494;-71
2022/12/13 01:41:03;;;;;;;6.07;4.45;;;24.50;87.80;;;;;;6364454;22;20075;-68
2022/12/13 01:43:53;;;;;;;10.15;5.05;;;24.50;87.70;;;;;;6364998;22;20030;-71
2022/12/13 01:46:20;;;;;;;7.75;4.07;;;24.50;87.60;;;;;;6338146;22;20302;-67
2022/12/13 01:48:53;;;;;;;5.18;4.35;;;24.40;87.50;;;;;;6364714;22;20043;-68
2022/12/13 01:51:25;;;;;;;5.15;3.58;;;24.40;87.40;;;;;;6366009;22;20002;-68
2022/12/13 01:53:53;;;;;;;3.97;2.88;;;24.50;87.30;;;;;;6364528;22;19998;-66
2022/12/13 01:56:29;;;;;;;4.65;2.65;;;24.40;87.20;;;;;;6365377;22;20091;-67
2022/12/13 01:58:57;;;;;;;5.13;2.92;;;24.40;87.20;;;;;;6365390;22;20071;-69
2022/12/13 02:01:24;;;;;;;5.65;3.22;;;24.40;87.20;;;;;;6336404;22;20026;-70
2022/12/13 02:03:51;;;;;;;4.85;3.00;;;24.40;87.30;;;;;;6366222;22;19998;-68
2022/12/13 04:20:56;;;;;;;4.43;1.85;;;23.50;87.10;;;;;;5057385;28;20405;-73
2022/12/13 04:23:22;;;;;;;6.78;5.88;;;23.70;86.90;;;;;;5044841;28;20558;-73
2022/12/13 04:25:50;;;;;;;28.92;26.00;;;23.70;86.60;;;;;;5044568;28;20017;-76
2022/12/13 04:28:20;;;;;;;24.77;21.80;;;23.80;86.50;;;;;;5045521;28;20025;-75
2022/12/13 04:31:06;;;;;;;16.05;14.45;;;23.80;86.20;;;;;;5046923;28;20032;-74
2022/12/13 04:33:41;;;;;;;10.25;7.72;;;23.80;85.90;;;;;;5045913;28;20451;-75
2022/12/13 04:36:48;;;;;;;5.85;4.78;;;23.90;85.70;;;;;;5044620;28;20052;-73
2022/12/13 04:39:14;;;;;;;13.40;12.10;;;23.90;85.50;;;;;;5044631;28;20033;-75
2022/12/13 04:41:41;;;;;;;18.95;17.15;;;24.00;85.30;;;;;;5045681;28;20371;-76
2022/12/13 04:44:09;;;;;;;16.05;14.52;;;24.00;85.10;;;;;;5044959;28;20425;-76
2022/12/13 04:46:55;;;;;;;10.95;9.85;;;24.00;85.00;;;;;;5042473;28;20061;-72
2022/12/13 04:50:01;;;;;;;7.97;7.18;;;24.00;84.80;;;;;;5037017;28;20034;-73
2022/12/13 04:52:47;;;;;;;;;;;24.00;84.80;;;;;;5044565;28;20025;-73
2022/12/13 04:55:14;;;;;;;4.43;3.03;;;24.10;84.80;;;;;;5038568;28;20016;-69
2022/12/13 04:57:40;;;;;;;2.70;2.45;;;24.10;84.60;;;;;;5039291;28;20049;-69
2022/12/13 05:00:11;;;;;;;7.05;1.83;;;24.10;84.60;;;;;;5042867;28;20032;-70
2022/12/13 05:02:40;;;;;;;2.78;1.90;;;24.10;85.30;;;;;;5042767;28;20110;-70
2022/12/13 05:05:46;;;;;;;2.65;2.35;;;24.10;84.90;;;;;;5043912;28;20029;-70
2022/12/13 05:08:52;;;;;;;4.47;1.58;;;24.10;85.20;;;;;;5042890;28;20115;-69
2022/12/13 05:11:38;;;;;;;;;;;24.10;85.40;;;;;;5040712;28;20442;-69
2022/12/13 05:14:44;;;;;;;3.65;2.63;;;24.10;85.40;;;;;;5046246;28;19909;-70
2022/12/13 05:17:30;;;;;;;;;;;24.10;85.20;;;;;;5044640;28;20108;-69
2022/12/13 05:20:36;;;;;;;3.10;1.67;;;24.10;85.10;;;;;;5036469;28;19963;-70
2022/12/13 05:23:22;;;;;;;;;;;24.10;84.90;;;;;;5030695;28;20420;-70
2022/12/13 05:26:28;;;;;;;5.47;2.83;;;24.10;84.80;;;;;;5029874;28;19909;-70
2022/12/13 05:29:14;;;;;;;;;;;24.10;85.30;;;;;;5028843;28;20065;-70
2022/12/13 05:32:20;;;;;;;5.95;3.20;;;24.10;84.60;;;;;;5025257;28;19909;-70
2022/12/13 05:35:06;;;;;;;;;;;24.10;84.60;;;;;;5023835;28;20126;-70
2022/12/13 05:38:12;;;;;;;4.43;3.03;;;24.10;84.60;;;;;;5025718;28;20851;-70
2022/12/13 05:40:58;;;;;;;;;;;24.10;84.60;;;;;;5024965;28;20032;-71
2022/12/13 05:44:04;;;;;;;3.03;1.92;;;24.10;84.60;;;;;;5030425;28;19913;-71
2022/12/13 05:46:50;;;;;;;;;;;24.10;84.50;;;;;;5025589;28;20116;-71
2022/12/13 05:49:56;;;;;;;3.20;2.13;;;24.10;84.60;;;;;;5028355;28;19917;-71
2022/12/13 05:52:42;;;;;;;;;;;24.10;84.60;;;;;;5028964;28;20795;-70
2022/12/13 05:55:48;;;;;;;4.82;1.58;;;24.10;84.60;;;;;;5028217;28;19908;-70
2022/12/13 05:58:44;;;;;;;;;;;24.20;84.60;;;;;;5029888;28;20030;-71
2022/12/13 06:02:02;;;;;;;;;;;;;;;;;;;;;
2022/12/13 06:04:29;;;;;;;2.70;1.60;;;24.20;84.60;;;;;;5027386;28;20036;-70
2022/12/13 06:06:55;;;;;;;3.78;2.47;;;24.20;84.70;;;;;;5029828;28;20113;-72
2022/12/13 06:09:22;;;;;;;3.45;1.85;;;24.20;84.70;;;;;;5027918;28;20423;-69
2022/12/13 06:11:49;;;;;;;8.77;2.15;;;24.20;84.60;;;;;;5029774;28;20017;-69
2022/12/13 06:14:15;;;;;;;4.22;2.30;;;24.20;84.50;;;;;;5029270;28;20396;-70
2022/12/13 06:16:42;;;;;;;3.72;1.73;;;24.20;84.40;;;;;;5029268;28;20660;-70
2022/12/13 06:19:08;;;;;;;4.75;1.83;;;24.30;84.30;;;;;;5028416;28;20120;-69
2022/12/13 06:21:35;;;;;;;2.83;2.08;;;24.30;84.10;;;;;;5028769;28;20106;-69
2022/12/13 06:24:04;;;;;;;4.45;2.45;;;24.30;83.90;;;;;;5029122;28;20021;-69
2022/12/13 06:26:31;;;;;;;9.65;2.85;;;24.30;83.70;;;;;;5028818;28;20562;-69
2022/12/13 06:28:57;;;;;;;6.07;1.58;;;24.30;83.60;;;;;;5028327;28;20033;-69
2022/12/13 06:31:34;;;;;;;4.03;1.65;;;24.30;83.40;;;;;;5029231;28;20464;-73
2022/12/13 06:34:02;;;;;;;3.53;1.90;;;24.30;83.30;;;;;;5028772;28;20028;-70
2022/12/13 06:36:29;;;;;;;1.88;1.67;;;24.30;83.10;;;;;;5028105;28;20032;-70
2022/12/13 06:38:55;;;;;;;3.28;1.90;;;24.30;83.00;;;;;;5025517;28;20044;-69
2022/12/13 06:41:22;;;;;;;1.75;0.90;;;24.30;82.70;;;;;;5028673;28;20025;-69
2022/12/13 06:43:49;;;;;;;1.80;1.30;;;24.30;82.50;;;;;;5028399;28;20024;-70
2022/12/13 06:46:15;;;;;;;4.82;1.85;;;24.30;82.40;;;;;;5028903;28;20095;-70
2022/12/13 06:48:42;;;;;;;15.75;2.42;;;24.30;82.20;;;;;;5027288;28;20552;-70
2022/12/13 06:51:09;;;;;;;15.45;2.10;;;24.30;82.20;;;;;;5043308;28;20029;-68
2022/12/13 06:53:37;;;;;;;1.83;1.20;;;24.30;82.30;;;;;;5028661;28;20037;-69
2022/12/13 06:56:12;;;;;;;1.77;1.30;;;24.40;82.30;;;;;;5023068;28;20045;-70
2022/12/13 06:58:39;;;;;;;5.72;1.20;;;24.30;82.10;;;;;;5027703;28;20057;-70
2022/12/13 07:01:13;;;;;;;8.75;1.88;;;24.40;82.10;;;;;;5027684;28;20018;-69
2022/12/13 07:03:40;;;;;;;2.33;1.05;;;24.40;82.00;;;;;;5027484;28;20029;-70
2022/12/13 07:06:12;;;;;;;4.15;1.77;;;24.40;82.10;;;;;;5027962;28;20037;-70
2022/12/13 07:08:42;;;;;;;4.32;1.83;;;24.50;82.20;;;;;;5027867;28;20369;-70
2022/12/13 07:11:19;;;;;;;5.40;1.80;;;24.50;82.20;;;;;;5028278;28;20509;-70
2022/12/13 07:13:45;;;;;;;4.63;1.20;;;24.60;82.20;;;;;;5027169;28;20021;-71
2022/12/13 07:16:13;;;;;;;3.28;1.20;;;24.60;82.10;;;;;;5028248;28;20048;-70
2022/12/13 07:18:40;;;;;;;9.10;2.05;;;24.60;81.90;;;;;;5027120;28;20053;-70
2022/12/13 07:21:12;;;;;;;3.58;1.05;;;24.60;81.60;;;;;;5027790;28;20036;-70
2022/12/13 07:23:40;;;;;;;3.13;1.13;;;24.70;81.60;;;;;;5026947;28;20037;-69
2022/12/13 07:26:07;;;;;;;1.95;1.00;;;24.80;81.50;;;;;;5026057;28;20025;-70
2022/12/13 07:28:35;;;;;;;1.50;1.02;;;24.90;81.20;;;;;;5026982;28;20025;-70
2022/12/13 07:31:04;;;;;;;2.17;1.13;;;24.90;80.90;;;;;;5027425;28;20030;-70
2022/12/13 07:33:34;;;;;;;1.17;1.05;;;24.90;80.70;;;;;;5028267;28;20032;-70
2022/12/13 07:36:20;;;;;;;4.68;1.23;;;25.00;80.50;;;;;;5026713;28;20040;-71
2022/12/13 07:38:52;;;;;;;2.05;1.00;;;25.00;80.10;;;;;;5028121;28;20097;-70
2022/12/13 07:41:18;;;;;;;2.55;1.00;;;25.00;79.80;;;;;;5024428;28;20032;-70
2022/12/13 07:43:45;;;;;;;2.05;1.77;;;25.00;79.50;;;;;;5026785;28;20045;-71
2022/12/13 07:46:12;;;;;;;2.17;1.17;;;25.10;79.00;;;;;;5027197;28;20022;-71
2022/12/13 07:48:39;;;;;;;2.10;1.30;;;25.10;78.80;;;;;;5027862;28;20036;-70
2022/12/13 07:51:09;;;;;;;1.75;1.10;;;25.10;78.40;;;;;;5028115;28;20029;-71
2022/12/13 07:53:36;;;;;;;2.35;1.35;;;25.10;77.70;;;;;;5026977;28;20128;-70
2022/12/13 07:56:05;;;;;;;1.42;1.33;;;25.10;78.10;;;;;;5027233;28;20025;-71
2022/12/13 07:58:34;;;;;;;9.77;1.90;;;25.10;78.10;;;;;;5027066;28;20476;-70
2022/12/13 08:01:03;;;;;;;2.63;1.52;;;25.10;78.00;;;;;;5027190;28;20033;-70
2022/12/13 08:03:30;;;;;;;5.60;1.75;;;25.10;78.20;;;;;;5026720;28;20036;-70
2022/12/13 08:06:06;;;;;;;7.93;1.38;;;25.10;78.10;;;;;;5026598;28;20029;-71
2022/12/13 08:08:32;;;;;;;6.22;1.65;;;25.10;77.90;;;;;;5028269;28;20042;-71
2022/12/13 08:11:08;;;;;;;4.32;1.02;;;25.10;77.90;;;;;;5026244;28;20602;-70
2022/12/13 08:13:35;;;;;;;18.92;1.88;;;25.20;78.50;;;;;;5027736;28;20022;-70
2022/12/13 08:16:06;;;;;;;4.28;2.05;;;25.20;78.80;;;;;;5026956;28;20021;-70
2022/12/13 08:18:33;;;;;;;5.05;1.58;;;25.20;78.90;;;;;;5027482;28;20040;-70
2022/12/13 08:21:02;;;;;;;9.10;1.98;;;25.20;78.70;;;;;;5027775;28;20036;-69
2022/12/13 08:23:31;;;;;;;3.95;1.10;;;25.20;78.40;;;;;;5026784;28;20030;-70
2022/12/13 08:25:57;;;;;;;2.05;1.30;;;25.20;78.10;;;;;;5027544;28;20499;-70
2022/12/13 08:28:25;;;;;;;3.10;0.98;;;25.20;78.00;;;;;;5026760;28;20052;-70
2022/12/13 08:30:52;;;;;;;1.95;1.10;;;25.20;78.00;;;;;;5027280;28;20021;-70
2022/12/13 08:33:19;;;;;;;14.18;1.88;;;25.20;77.90;;;;;;5025583;28;20029;-70
2022/12/13 08:35:46;;;;;;;8.18;1.38;;;25.20;77.80;;;;;;5026233;28;20035;-70
2022/12/13 08:38:13;;;;;;;5.32;1.55;;;25.20;77.60;;;;;;5039456;28;20544;-71
2022/12/13 08:40:40;;;;;;;3.97;1.23;;;25.10;77.30;;;;;;5027020;28;20459;-70
2022/12/13 08:43:06;;;;;;;3.75;1.30;;;25.20;77.10;;;;;;5025252;28;20033;-70
2022/12/13 08:45:33;;;;;;;6.22;1.90;;;25.10;76.90;;;;;;5026420;28;20037;-70
2022/12/13 08:48:01;;;;;;;10.32;1.55;;;25.10;76.80;;;;;;5027552;28;20068;-70
2022/12/13 08:50:29;;;;;;;2.85;1.23;;;25.10;76.90;;;;;;5025879;28;20477;-69
2022/12/13 08:52:56;;;;;;;3.05;1.08;;;25.10;77.30;;;;;;5026580;28;20018;-70
2022/12/13 08:55:22;;;;;;;1.80;1.08;;;25.10;78.10;;;;;;5025796;28;20484;-70
2022/12/13 08:57:49;;;;;;;4.93;1.13;;;25.20;77.50;;;;;;5030387;28;20052;-70
2022/12/13 09:00:18;;;;;;;5.20;1.42;;;25.20;77.40;;;;;;5030663;28;20053;-70
2022/12/13 09:02:44;;;;;;;5.57;2.80;;;25.20;77.30;;;;;;5027900;28;20024;-71
2022/12/13 09:05:12;;;;;;;8.35;2.00;;;25.20;77.10;;;;;;5031121;28;20052;-69
2022/12/13 09:07:39;;;;;;;4.10;1.20;;;25.20;77.10;;;;;;5030702;28;20029;-70
2022/12/13 09:10:07;;;;;;;1.73;1.13;;;25.10;77.10;;;;;;5030311;28;20475;-69
2022/12/13 09:12:34;;;;;;;3.70;1.60;;;25.10;77.20;;;;;;5030743;28;20044;-69
2022/12/13 09:15:01;;;;;;;2.03;1.52;;;25.20;77.40;;;;;;5030318;28;20022;-69
2022/12/13 09:17:28;;;;;;;3.22;1.23;;;25.10;77.30;;;;;;5030833;28;20140;-70
2022/12/13 09:19:55;;;;;;;2.28;1.23;;;25.20;77.40;;;;;;5028669;28;20390;-70
2022/12/13 09:22:21;;;;;;;2.70;1.55;;;25.20;77.50;;;;;;5030897;28;20540;-70
2022/12/13 09:24:48;;;;;;;3.08;1.48;;;25.20;77.60;;;;;;5027747;28;20052;-71
2022/12/13 09:27:14;;;;;;;3.97;1.52;;;25.20;77.60;;;;;;5030269;28;20040;-71
2022/12/13 09:29:41;;;;;;;4.65;2.30;;;25.30;77.70;;;;;;5030622;28;20033;-70
2022/12/13 09:32:07;;;;;;;2.63;1.13;;;25.30;77.90;;;;;;5029785;28;20018;-70
2022/12/13 09:34:34;;;;;;;7.72;1.92;;;25.40;77.80;;;;;;5030371;28;20057;-70
2022/12/13 09:37:00;;;;;;;3.03;0.95;;;25.50;77.60;;;;;;5029250;28;20031;-71
2022/12/13 09:39:27;;;;;;;1.92;1.45;;;25.60;77.50;;;;;;5030480;28;20029;-70
2022/12/13 09:41:56;;;;;;;3.47;1.52;;;25.70;78.10;;;;;;5029434;28;20040;-71
2022/12/13 09:44:32;;;;;;;3.22;1.92;;;25.80;76.80;;;;;;5030561;28;20040;-70
2022/12/13 09:47:01;;;;;;;3.55;2.05;;;25.80;75.40;;;;;;5027109;28;20060;-71
2022/12/13 09:49:31;;;;;;;5.13;1.98;;;25.80;75.00;;;;;;5028927;28;20037;-70
2022/12/13 09:52:00;;;;;;;3.70;2.05;;;25.80;75.30;;;;;;5030734;28;20030;-70
2022/12/13 09:54:27;;;;;;;3.70;1.33;;;25.90;75.80;;;;;;5028866;28;20156;-70
2022/12/13 09:56:55;;;;;;;9.60;2.20;;;25.90;75.90;;;;;;5029996;28;20083;-71
2022/12/13 09:59:32;;;;;;;4.53;2.00;;;25.90;75.80;;;;;;5029170;28;20033;-70
2022/12/13 10:02:23;;;;;;;2.45;1.52;;;26.00;75.60;;;;;;5027774;28;20029;-70
2022/12/13 12:21:12;;;;;;;4.95;1.80;;;27.10;68.10;;;;;;5048952;28;20462;-69
2022/12/13 12:23:59;;;;;;;1.75;1.60;;;27.20;67.70;;;;;;5028501;28;20033;-70
2022/12/13 12:26:37;;;;;;;4.15;1.73;;;27.20;67.50;;;;;;5028899;28;20022;-69
2022/12/13 12:29:16;;;;;;;4.22;2.10;;;27.20;67.70;;;;;;5031687;28;20430;-70
2022/12/13 12:32:09;;;;;;;5.03;1.85;;;27.20;67.70;;;;;;5030407;28;20492;-69
2022/12/13 12:34:50;;;;;;;10.30;2.63;;;27.20;67.60;;;;;;5026714;28;20017;-69
2022/12/13 12:38:07;;;;;;;4.20;2.08;;;27.20;67.30;;;;;;5030263;28;20372;-69
2022/12/13 12:41:02;;;;;;;5.65;2.70;;;27.30;67.50;;;;;;5007066;28;20441;-69
2022/12/13 12:43:34;;;;;;;3.05;1.60;;;27.30;67.50;;;;;;5025853;28;20111;-70
2022/12/13 12:46:39;;;;;;;6.93;2.15;;;27.30;67.40;;;;;;5028940;28;20026;-70
2022/12/13 12:49:39;;;;;;;3.78;2.30;;;27.40;67.30;;;;;;5033911;28;20041;-70
2022/12/13 12:52:23;;;;;;;5.22;2.15;;;27.30;66.80;;;;;;5008210;28;20037;-71
2022/12/13 12:55:04;;;;;;;4.50;2.13;;;27.30;66.90;;;;;;5032319;28;20025;-72
2022/12/13 12:58:14;;;;;;;5.30;2.13;;;27.40;67.10;;;;;;5031199;28;20025;-71
2022/12/13 13:00:59;;;;;;;3.83;1.85;;;27.40;67.00;;;;;;5007055;28;20455;-70
2022/12/13 13:03:29;;;;;;;7.85;1.63;;;27.40;66.90;;;;;;5027055;28;20469;-70
2022/12/13 13:06:02;;;;;;;4.78;2.65;;;27.40;66.70;;;;;;5030449;28;20034;-69
2022/12/13 13:08:58;;;;;;;3.92;1.38;;;27.40;66.60;;;;;;5026916;28;20034;-70
2022/12/13 13:11:27;;;;;;;6.68;1.85;;;27.40;66.60;;;;;;5028006;28;20055;-70
2022/12/13 13:14:20;;;;;;;4.78;1.85;;;27.50;66.70;;;;;;5028973;28;20310;-69
2022/12/13 13:16:47;;;;;;;8.65;2.00;;;27.50;66.60;;;;;;5025217;28;20116;-69
2022/12/13 13:19:13;;;;;;;5.20;2.40;;;27.50;66.50;;;;;;5033014;28;20052;-69
2022/12/13 13:21:48;;;;;;;4.93;1.75;;;27.60;67.00;;;;;;5037276;28;20024;-69
2022/12/13 13:24:16;;;;;;;;;;;27.60;67.20;;;;;;5034797;28;20024;-69
2022/12/13 13:26:52;;;;;;;6.30;1.83;;;27.60;66.40;;;;;;5034494;28;19937;-69
2022/12/13 13:29:22;;;;;;;12.40;2.97;;;27.70;66.10;;;;;;5036318;28;20032;-70
2022/12/13 13:32:04;;;;;;;8.70;2.63;;;27.70;66.20;;;;;;5030489;28;20107;-69
2022/12/13 13:34:40;;;;;;;4.25;1.83;;;27.80;67.00;;;;;;5033976;28;20029;-70
2022/12/13 13:37:47;;;;;;;5.35;1.85;;;27.80;66.00;;;;;;5034665;28;20028;-70
2022/12/13 13:40:13;;;;;;;5.07;2.03;;;27.90;65.50;;;;;;5027012;28;20044;-69
2022/12/13 13:43:29;;;;;;;5.43;2.97;;;27.90;65.20;;;;;;5033318;28;20029;-69
2022/12/13 13:46:11;;;;;;;2.83;2.13;;;28.00;65.30;;;;;;5003574;28;20037;-69
2022/12/13 13:48:57;;;;;;;4.40;2.15;;;28.00;65.10;;;;;;5000762;28;20302;-69
2022/12/13 13:51:42;;;;;;;4.43;2.22;;;28.00;64.80;;;;;;5026220;28;20037;-69
2022/12/13 13:54:32;;;;;;;5.22;1.60;;;28.00;64.70;;;;;;5034785;28;20029;-69
2022/12/13 13:57:21;;;;;;;5.78;2.28;;;28.00;65.10;;;;;;5035374;28;20025;-69
2022/12/13 14:00:24;;;;;;;4.68;1.70;;;28.00;64.80;;;;;;5030588;28;20017;-68
2022/12/13 14:03:05;;;;;;;4.82;1.65;;;27.90;64.90;;;;;;5033533;28;20584;-69
2022/12/13 14:05:53;;;;;;;8.25;3.17;;;27.80;64.80;;;;;;5039170;28;20090;-69
2022/12/13 14:08:49;;;;;;;3.63;2.35;;;27.80;64.80;;;;;;5032069;28;20037;-69
2022/12/13 14:11:26;;;;;;;5.50;1.83;;;27.70;64.80;;;;;;5036346;28;20387;-69
2022/12/13 14:14:29;;;;;;;3.10;1.98;;;27.70;64.90;;;;;;5036167;28;20029;-69
2022/12/13 14:17:23;;;;;;;5.18;2.85;;;27.60;65.10;;;;;;5033541;28;20484;-69
2022/12/13 14:19:59;;;;;;;5.30;2.30;;;27.60;65.30;;;;;;5028169;28;20140;-69
2022/12/13 14:22:54;;;;;;;4.82;1.75;;;27.60;65.40;;;;;;5031518;28;20032;-70
2022/12/13 14:25:57;;;;;;;5.30;2.45;;;27.60;65.60;;;;;;5038406;28;20136;-69
2022/12/13 14:28:38;;;;;;;10.80;2.72;;;27.60;65.80;;;;;;5028303;28;20112;-70
2022/12/13 14:31:19;;;;;;;4.13;2.67;;;27.60;66.00;;;;;;5034842;28;20506;-69
2022/12/13 14:33:46;;;;;;;4.82;2.25;;;27.60;66.10;;;;;;5035753;28;20095;-69
2022/12/13 14:36:24;;;;;;;6.53;1.70;;;27.60;66.30;;;;;;5041406;28;20028;-69
2022/12/13 14:39:00;;;;;;;2.80;1.70;;;27.60;66.50;;;;;;5032870;28;20067;-69
2022/12/13 14:41:26;;;;;;;6.90;2.22;;;27.60;66.40;;;;;;5031614;28;20105;-69
2022/12/13 14:44:36;;;;;;;2.03;1.42;;;27.60;66.40;;;;;;5036672;28;20025;-74
2022/12/13 14:47:42;;;;;;;21.60;4.13;;;27.60;66.40;;;;;;5032986;28;20025;-72
2022/12/13 14:50:50;;;;;;;14.30;2.25;;;27.60;66.30;;;;;;5027578;28;20040;-71
2022/12/13 14:54:08;;;;;;;5.90;2.03;;;27.60;66.50;;;;;;5034800;28;20017;-71
2022/12/13 14:57:14;;;;;;;5.28;2.33;;;27.60;66.40;;;;;;5031622;28;20068;-71
2022/12/13 15:00:21;;;;;;;19.25;14.70;;;27.70;66.30;;;;;;5031752;28;20079;-71
2022/12/13 15:03:30;;;;;;;6.00;3.03;;;27.50;66.20;;;;;;5025393;28;20021;-72
2022/12/13 15:06:03;;;;;;;3.95;1.77;;;27.40;66.30;;;;;;5030988;28;20074;-71
2022/12/13 15:08:31;;;;;;;8.45;2.58;;;27.40;66.50;;;;;;5030876;28;20376;-71
2022/12/13 15:10:59;;;;;;;7.15;1.58;;;27.40;67.20;;;;;;5036035;28;20100;-72
2022/12/13 15:13:46;;;;;;;8.98;2.10;;;27.40;68.00;;;;;;5034225;28;20021;-71
2022/12/13 15:16:28;;;;;;;12.35;2.85;;;27.40;67.50;;;;;;5034260;28;20025;-71
2022/12/13 15:19:16;;;;;;;12.00;4.25;;;27.50;67.70;;;;;;5037322;28;20460;-71
2022/12/13 15:21:57;;;;;;;8.45;5.07;;;27.60;67.30;;;;;;5038765;28;20053;-71
2022/12/13 15:24:31;;;;;;;4.30;2.83;;;27.50;66.70;;;;;;5036352;28;20022;-71
2022/12/13 15:26:58;;;;;;;2.47;1.27;;;27.60;66.50;;;;;;5037277;28;20079;-71
2022/12/13 15:29:29;;;;;;;5.53;2.10;;;27.50;66.10;;;;;;5025408;28;20033;-71
2022/12/13 15:31:56;;;;;;;5.28;1.95;;;27.60;66.20;;;;;;5029596;28;20026;-72
2022/12/13 15:34:33;;;;;;;3.80;1.67;;;27.60;66.40;;;;;;5031494;28;20021;-71
2022/12/13 15:37:14;;;;;;;7.45;3.08;;;27.60;66.30;;;;;;5026145;28;20018;-71
2022/12/13 15:40:21;;;;;;;2.55;1.70;;;27.60;66.30;;;;;;5029844;28;20022;-71
2022/12/13 15:43:27;;;;;;;5.85;1.75;;;27.60;66.40;;;;;;5030063;28;20025;-71
2022/12/13 15:46:35;;;;;;;5.35;1.75;;;27.60;66.60;;;;;;5031824;28;20064;-71
2022/12/13 15:49:51;;;;;;;4.63;1.73;;;27.60;66.60;;;;;;5028182;28;20033;-72
2022/12/13 15:52:18;;;;;;;4.10;1.40;;;27.50;66.50;;;;;;5031809;28;20033;-70
2022/12/13 15:55:19;;;;;;;7.38;2.05;;;27.50;66.80;;;;;;5028934;28;20042;-71
2022/12/13 15:58:28;;;;;;;17.90;14.38;;;27.50;66.90;;;;;;5028012;28;20058;-71
2022/12/13 16:01:27;;;;;;;6.40;3.97;;;27.50;66.90;;;;;;5030369;28;20059;-70
2022/12/13 16:03:53;;;;;;;6.32;1.90;;;27.50;66.80;;;;;;5028763;28;20083;-70
2022/12/13 16:06:22;;;;;;;3.38;1.70;;;27.40;66.60;;;;;;5031615;28;20589;-71
2022/12/13 16:08:57;;;;;;;4.40;1.75;;;27.40;66.70;;;;;;5034059;28;20038;-71
2022/12/13 16:11:46;;;;;;;4.13;1.63;;;27.30;66.70;;;;;;5028356;28;20014;-70
2022/12/13 16:14:38;;;;;;;5.53;2.13;;;27.30;66.90;;;;;;5031773;28;20018;-70
2022/12/13 16:17:25;;;;;;;4.90;1.52;;;27.30;67.00;;;;;;5031075;28;20025;-71
2022/12/13 16:19:53;;;;;;;4.70;1.80;;;27.30;67.10;;;;;;5029470;28;20125;-71
2022/12/13 16:22:22;;;;;;;7.88;2.33;;;27.30;67.30;;;;;;5030273;28;20072;-72
2022/12/13 16:24:55;;;;;;;4.95;1.90;;;27.30;67.40;;;;;;5031161;28;20026;-72
2022/12/13 16:27:21;;;;;;;5.10;1.80;;;27.30;67.50;;;;;;5032631;28;20110;-72
2022/12/13 16:30:28;;;;;;;2.83;1.88;;;27.20;67.50;;;;;;5027510;28;20034;-70
2022/12/13 16:33:34;;;;;;;7.50;6.28;;;27.20;67.60;;;;;;5037233;28;20131;-70
2022/12/13 16:36:40;;;;;;;14.07;8.18;;;27.20;67.90;;;;;;5030938;28;20488;-70
2022/12/13 16:39:46;;;;;;;5.75;2.97;;;27.10;67.90;;;;;;5030430;28;20025;-70
2022/12/13 16:42:52;;;;;;;5.45;2.47;;;27.10;67.90;;;;;;5029563;28;20025;-71
2022/12/13 16:46:02;;;;;;;3.92;1.63;;;27.10;68.20;;;;;;5028627;28;20088;-69
2022/12/13 16:49:08;;;;;;;6.13;3.05;;;27.10;68.30;;;;;;5030486;28;20573;-71
2022/12/13 16:51:56;;;;;;;1.92;1.70;;;27.10;68.50;;;;;;5029211;28;20034;-71
2022/12/13 16:55:02;;;;;;;6.95;2.55;;;27.10;68.70;;;;;;5027128;28;20030;-72
2022/12/13 16:58:19;;;;;;;10.27;4.10;;;27.00;68.90;;;;;;5031966;28;20028;-72
2022/12/13 17:00:48;;;;;;;;;;;27.00;69.10;;;;;;5032183;28;20035;-72
2022/12/13 17:03:15;;;;;;;14.13;12.48;;;27.00;69.30;;;;;;5029863;28;19909;-72
2022/12/13 17:05:43;;;;;;;12.13;8.10;;;27.00;69.30;;;;;;5034027;28;20083;-72
2022/12/13 17:08:14;;;;;;;12.00;2.85;;;27.00;69.40;;;;;;5030951;28;20033;-71
2022/12/13 17:10:43;;;;;;;8.27;3.97;;;26.90;69.30;;;;;;5031960;28;20028;-72
2022/12/13 17:13:27;;;;;;;6.47;2.47;;;26.90;69.50;;;;;;5026969;28;20033;-71
2022/12/13 17:15:56;;;;;;;2.30;1.75;;;26.90;69.50;;;;;;5032848;28;20033;-74
2022/12/13 17:18:23;;;;;;;9.63;3.42;;;26.90;69.60;;;;;;5027868;28;20025;-72
2022/12/13 17:20:50;;;;;;;5.45;1.77;;;26.90;69.60;;;;;;5034902;28;20039;-72
2022/12/13 17:23:17;;;;;;;8.13;4.47;;;26.90;69.70;;;;;;5031972;28;20037;-72
2022/12/13 17:25:44;;;;;;;11.93;6.72;;;26.80;69.70;;;;;;5032288;28;20022;-71
2022/12/13 17:28:18;;;;;;;5.72;5.22;;;26.80;69.80;;;;;;5029991;28;20048;-72
2022/12/13 17:30:53;;;;;;;4.07;2.60;;;26.80;69.80;;;;;;5031574;28;20036;-72
2022/12/13 17:33:19;;;;;;;;;;;26.80;69.80;;;;;;5044648;28;20029;-72
2022/12/13 17:35:46;;;;;;;4.65;1.80;;;26.70;69.80;;;;;;5026866;28;20434;-73
2022/12/13 17:38:13;;;;;;;4.13;1.65;;;26.70;69.80;;;;;;5029334;28;20032;-74
2022/12/13 17:40:40;;;;;;;4.22;1.65;;;26.70;69.80;;;;;;5029554;28;20010;-72
2022/12/13 17:43:10;;;;;;;3.78;1.77;;;26.60;69.80;;;;;;5031592;28;20045;-72
2022/12/13 17:45:37;;;;;;;2.88;1.60;;;26.60;69.90;;;;;;5027684;28;20029;-75
2022/12/13 17:48:04;;;;;;;3.03;1.48;;;26.60;69.90;;;;;;5031599;28;20045;-70
2022/12/13 17:50:31;;;;;;;7.03;1.90;;;26.60;69.90;;;;;;5028695;28;20025;-74
2022/12/13 17:52:57;;;;;;;1.45;1.35;;;26.50;69.90;;;;;;5032573;28;20480;-73
2022/12/13 17:55:24;;;;;;;4.00;1.30;;;26.50;69.90;;;;;;5050730;28;20387;-72
2022/12/13 17:57:50;;;;;;;37.65;31.08;;;26.50;70.00;;;;;;5033211;28;20028;-76
2022/12/13 18:00:17;;;;;;;39.80;29.58;;;26.50;69.60;;;;;;5030887;28;20049;-75
2022/12/13 18:02:48;;;;;;;30.48;24.15;;;26.30;70.40;;;;;;5029506;28;20017;-74
2022/12/13 22:24:45;;;;;;;7.28;2.03;;;24.60;79.00;;;;;;6088910;22;2603979;-66
2022/12/13 22:27:12;;;;;;;5.88;2.45;;;24.70;80.00;;;;;;6184063;23;21037;-68
2022/12/13 22:29:39;;;;;;;3.88;2.97;;;24.70;79.70;;;;;;6183348;23;19997;-67
2022/12/13 22:32:06;;;;;;;3.28;2.20;;;24.80;79.40;;;;;;6184781;23;20005;-68